Terminal Aerodrome Forecast
Issued by NWS Cleveland, OH

Home | Current Version | Previous Version | Graphics & Text | Print | Product List | Glossary Off
Versions: 1 2 3 4 5 6 7 8 9 10 11 12

000
FTUS41 KCLE 220500
TAFCAK
TAF
KCAK 220537Z 2206/2306 24007KT P6SM SCT100
     FM221000 28008KT P6SM VCSH BKN080
     FM221600 30012G20KT P6SM SCT050
     FM222300 VRB05KT P6SM SKC=

USA.gov is the U.S. government's official web portal to all federal, state and local government web resources and services.